Terminal Aerodrome Forecast
Issued by NWS Cleveland, OH

Home | Current Version | Previous Version | Graphics & Text | Print | Product List | Glossary On
Versions: 1 2 3 4 5 6 7 8 9 10 11 12 13 14 15 16 17 18 19 20 21 22 23
000
FTUS41 KCLE 171100
TAFMFD
TAF
KMFD 171133Z 1712/1812 25005KT 5SM BR VCSH BKN009
     FM171400 29007KT P6SM VCSH BKN015 OVC050
     FM171500 31004KT P6SM BKN035
     FM171900 35006KT P6SM SCT040 BKN090
     FM180900 09002KT 4SM BR SCT015 BKN035=

USA.gov is the U.S. government's official web portal to all federal, state and local government web resources and services.